F7LR EDDK-EDDS
Flight info
| Callsign | F7LR |
|---|---|
| Flight time | 1h 25m |
| Altitude | 9000 |
| Route | KUMIK7M/31L KUMIK L603 BOMBI N850 KRH T128 BADSO BADSO2A |
| Aircraft | DA42/L-SDFGRY/C |
Departure
| Time | 2026-04-26 15:47 |
|---|---|
| Airport | Cologne Bonn Airport (EDDK) |
Arrival
| Time | 2026-04-26 17:13 |
|---|---|
| Airport | Stuttgart Airport (EDDS) |
| Time | Latitude | Longitude | Altitude | Speed | Heading |
|---|---|---|---|---|---|
| 2026-04-26 15:19 | 50.87223 | 7.12435 | 227 ft | 0 kts | 317° |
| 2026-04-26 15:39 | 50.87226 | 7.12430 | 227 ft | 5 kts | 316° |
| 2026-04-26 15:39 | 50.87244 | 7.12376 | 227 ft | 6 kts | 253° |
| 2026-04-26 15:39 | 50.87214 | 7.12332 | 227 ft | 8 kts | 211° |
| 2026-04-26 15:39 | 50.87168 | 7.12322 | 227 ft | 12 kts | 149° |
| 2026-04-26 15:40 | 50.87069 | 7.12460 | 227 ft | 15 kts | 137° |
| 2026-04-26 15:40 | 50.86984 | 7.12583 | 229 ft | 19 kts | 140° |
| 2026-04-26 15:40 | 50.86885 | 7.12727 | 232 ft | 19 kts | 135° |
| 2026-04-26 15:40 | 50.86797 | 7.12857 | 235 ft | 16 kts | 136° |
| 2026-04-26 15:41 | 50.86717 | 7.12971 | 238 ft | 15 kts | 137° |
| 2026-04-26 15:41 | 50.86632 | 7.13093 | 240 ft | 17 kts | 136° |
| 2026-04-26 15:41 | 50.86550 | 7.13213 | 243 ft | 15 kts | 143° |
| 2026-04-26 15:41 | 50.86474 | 7.13323 | 244 ft | 13 kts | 137° |
| 2026-04-26 15:42 | 50.86428 | 7.13390 | 245 ft | 6 kts | 136° |
| 2026-04-26 15:42 | 50.86424 | 7.13396 | 246 ft | 0 kts | 139° |
| 2026-04-26 15:44 | 50.86423 | 7.13397 | 246 ft | 2 kts | 138° |
| 2026-04-26 15:44 | 50.86386 | 7.13444 | 246 ft | 9 kts | 153° |
| 2026-04-26 15:45 | 50.86285 | 7.13261 | 246 ft | 10 kts | 274° |
| 2026-04-26 15:45 | 50.86306 | 7.13214 | 246 ft | 0 kts | 313° |
| 2026-04-26 15:46 | 50.86324 | 7.13187 | 246 ft | 23 kts | 313° |
| 2026-04-26 15:47 | 50.86750 | 7.12566 | 255 ft | 90 kts | 320° |
| 2026-04-26 15:47 | 50.87801 | 7.11177 | 773 ft | 102 kts | 323° |
| 2026-04-26 15:47 | 50.88429 | 7.10752 | 1186 ft | 98 kts | 354° |
| 2026-04-26 15:48 | 50.89101 | 7.10948 | 1532 ft | 99 kts | 22° |
| 2026-04-26 15:48 | 50.89729 | 7.11373 | 1821 ft | 99 kts | 20° |
| 2026-04-26 15:48 | 50.90365 | 7.11780 | 2139 ft | 98 kts | 20° |
| 2026-04-26 15:48 | 50.91002 | 7.12188 | 2434 ft | 99 kts | 21° |
| 2026-04-26 15:49 | 50.91627 | 7.12594 | 2779 ft | 99 kts | 20° |
| 2026-04-26 15:49 | 50.92269 | 7.12998 | 3089 ft | 100 kts | 21° |
| 2026-04-26 15:49 | 50.92925 | 7.13410 | 3415 ft | 100 kts | 21° |
| 2026-04-26 15:49 | 50.93494 | 7.14024 | 3722 ft | 102 kts | 50° |
| 2026-04-26 15:50 | 50.93846 | 7.15019 | 4141 ft | 105 kts | 62° |
| 2026-04-26 15:50 | 50.94177 | 7.16073 | 4468 ft | 107 kts | 61° |
| 2026-04-26 15:50 | 50.94512 | 7.17133 | 4794 ft | 108 kts | 62° |
| 2026-04-26 15:50 | 50.94854 | 7.18211 | 5102 ft | 110 kts | 62° |
| 2026-04-26 15:51 | 50.95199 | 7.19303 | 5409 ft | 111 kts | 61° |
| 2026-04-26 15:51 | 50.95547 | 7.20400 | 5722 ft | 111 kts | 61° |
| 2026-04-26 15:51 | 50.95896 | 7.21501 | 6034 ft | 112 kts | 60° |
| 2026-04-26 15:51 | 50.96245 | 7.22606 | 6324 ft | 112 kts | 60° |
| 2026-04-26 15:52 | 50.96591 | 7.23696 | 6628 ft | 113 kts | 59° |
| 2026-04-26 15:52 | 50.96944 | 7.24810 | 6921 ft | 113 kts | 59° |
| 2026-04-26 15:52 | 50.97300 | 7.25933 | 7216 ft | 114 kts | 59° |
| 2026-04-26 15:52 | 50.97540 | 7.26693 | 7416 ft | 114 kts | 59° |
| 2026-04-26 15:53 | 50.98013 | 7.28189 | 7802 ft | 115 kts | 59° |
| 2026-04-26 15:53 | 50.98372 | 7.29327 | 8117 ft | 115 kts | 58° |
| 2026-04-26 15:53 | 50.98734 | 7.30470 | 8426 ft | 116 kts | 58° |
| 2026-04-26 15:53 | 50.99098 | 7.31625 | 8733 ft | 117 kts | 58° |
| 2026-04-26 15:54 | 50.99463 | 7.32783 | 9040 ft | 118 kts | 57° |
| 2026-04-26 15:54 | 50.99834 | 7.33955 | 9272 ft | 125 kts | 57° |
| 2026-04-26 15:54 | 51.00264 | 7.35311 | 9277 ft | 148 kts | 59° |
| 2026-04-26 15:54 | 51.00750 | 7.36868 | 9272 ft | 164 kts | 59° |
| 2026-04-26 15:55 | 51.01274 | 7.38542 | 9275 ft | 174 kts | 59° |
| 2026-04-26 15:55 | 51.01797 | 7.40322 | 9272 ft | 182 kts | 67° |
| 2026-04-26 15:55 | 51.01963 | 7.42329 | 9276 ft | 190 kts | 90° |
| 2026-04-26 15:55 | 51.01667 | 7.44389 | 9277 ft | 192 kts | 104° |
| 2026-04-26 15:56 | 51.01269 | 7.46434 | 9274 ft | 194 kts | 105° |
| 2026-04-26 15:56 | 51.00862 | 7.48494 | 9271 ft | 196 kts | 105° |
| 2026-04-26 15:56 | 51.00457 | 7.50557 | 9268 ft | 195 kts | 105° |
| 2026-04-26 15:56 | 51.00054 | 7.52613 | 9272 ft | 195 kts | 105° |
| 2026-04-26 15:57 | 50.99650 | 7.54676 | 9263 ft | 195 kts | 104° |
| 2026-04-26 15:57 | 50.99250 | 7.56723 | 9263 ft | 193 kts | 104° |
| 2026-04-26 15:57 | 50.98852 | 7.58763 | 9269 ft | 194 kts | 105° |
| 2026-04-26 15:57 | 50.98585 | 7.60121 | 9267 ft | 194 kts | 105° |
| 2026-04-26 15:58 | 50.98043 | 7.62859 | 9263 ft | 195 kts | 105° |
| 2026-04-26 15:58 | 50.97640 | 7.64910 | 9266 ft | 195 kts | 105° |
| 2026-04-26 15:58 | 50.97374 | 7.66261 | 9267 ft | 192 kts | 105° |
| 2026-04-26 15:58 | 50.96980 | 7.68252 | 9267 ft | 186 kts | 105° |
| 2026-04-26 15:59 | 50.96600 | 7.70180 | 9266 ft | 181 kts | 105° |
| 2026-04-26 15:59 | 50.96105 | 7.72703 | 9264 ft | 180 kts | 105° |
| 2026-04-26 15:59 | 50.95853 | 7.73984 | 9262 ft | 180 kts | 105° |
| 2026-04-26 15:59 | 50.95478 | 7.75874 | 9261 ft | 180 kts | 105° |
| 2026-04-26 16:00 | 50.95107 | 7.77742 | 9258 ft | 179 kts | 105° |
| 2026-04-26 16:00 | 50.94735 | 7.79627 | 9260 ft | 179 kts | 105° |
| 2026-04-26 16:00 | 50.94356 | 7.81512 | 9254 ft | 180 kts | 107° |
| 2026-04-26 16:00 | 50.93740 | 7.83244 | 9260 ft | 181 kts | 122° |
| 2026-04-26 16:01 | 50.93042 | 7.84914 | 9256 ft | 182 kts | 122° |
| 2026-04-26 16:01 | 50.92339 | 7.86585 | 9251 ft | 182 kts | 122° |
| 2026-04-26 16:01 | 50.91645 | 7.88251 | 9250 ft | 181 kts | 122° |
| 2026-04-26 16:01 | 50.90949 | 7.89918 | 9253 ft | 181 kts | 122° |
| 2026-04-26 16:02 | 50.90253 | 7.91583 | 9252 ft | 181 kts | 122° |
| 2026-04-26 16:02 | 50.89557 | 7.93251 | 9253 ft | 182 kts | 122° |
| 2026-04-26 16:02 | 50.88863 | 7.94913 | 9250 ft | 180 kts | 122° |
| 2026-04-26 16:02 | 50.88405 | 7.96010 | 9253 ft | 180 kts | 122° |
| 2026-04-26 16:03 | 50.87477 | 7.98224 | 9243 ft | 180 kts | 122° |
| 2026-04-26 16:03 | 50.86788 | 7.99870 | 9244 ft | 179 kts | 122° |
| 2026-04-26 16:03 | 50.86100 | 8.01511 | 9250 ft | 179 kts | 122° |
| 2026-04-26 16:03 | 50.85410 | 8.03159 | 9241 ft | 179 kts | 122° |
| 2026-04-26 16:04 | 50.84733 | 8.04774 | 9238 ft | 177 kts | 122° |
| 2026-04-26 16:04 | 50.84052 | 8.06397 | 9236 ft | 177 kts | 122° |
| 2026-04-26 16:04 | 50.83372 | 8.08016 | 9235 ft | 176 kts | 122° |
| 2026-04-26 16:04 | 50.82692 | 8.09632 | 9238 ft | 176 kts | 122° |
| 2026-04-26 16:05 | 50.82014 | 8.11241 | 9249 ft | 176 kts | 122° |
| 2026-04-26 16:05 | 50.81333 | 8.12858 | 9245 ft | 176 kts | 122° |
| 2026-04-26 16:05 | 50.80654 | 8.14469 | 9251 ft | 176 kts | 122° |
| 2026-04-26 16:05 | 50.79976 | 8.16078 | 9241 ft | 176 kts | 122° |
| 2026-04-26 16:06 | 50.79300 | 8.17680 | 9245 ft | 175 kts | 122° |
| 2026-04-26 16:06 | 50.78627 | 8.19277 | 9245 ft | 175 kts | 122° |
| 2026-04-26 16:06 | 50.77952 | 8.20875 | 9245 ft | 175 kts | 122° |
| 2026-04-26 16:06 | 50.77282 | 8.22460 | 9250 ft | 176 kts | 122° |
| 2026-04-26 16:07 | 50.76601 | 8.24071 | 9253 ft | 176 kts | 122° |
| 2026-04-26 16:07 | 50.75921 | 8.25676 | 9248 ft | 175 kts | 122° |
| 2026-04-26 16:07 | 50.75242 | 8.27280 | 9251 ft | 175 kts | 122° |
| 2026-04-26 16:07 | 50.74565 | 8.28878 | 9250 ft | 175 kts | 122° |
| 2026-04-26 16:08 | 50.73887 | 8.30478 | 9251 ft | 175 kts | 123° |
| 2026-04-26 16:08 | 50.73210 | 8.32073 | 9252 ft | 175 kts | 122° |
| 2026-04-26 16:08 | 50.72535 | 8.33665 | 9253 ft | 174 kts | 122° |
| 2026-04-26 16:08 | 50.71856 | 8.35265 | 9249 ft | 176 kts | 123° |
| 2026-04-26 16:09 | 50.71174 | 8.36867 | 9255 ft | 175 kts | 122° |
| 2026-04-26 16:09 | 50.70497 | 8.38460 | 9250 ft | 174 kts | 122° |
| 2026-04-26 16:09 | 50.69827 | 8.40023 | 9251 ft | 174 kts | 125° |
| 2026-04-26 16:09 | 50.68927 | 8.41285 | 9253 ft | 174 kts | 151° |
| 2026-04-26 16:10 | 50.67865 | 8.42205 | 9264 ft | 174 kts | 153° |
| 2026-04-26 16:10 | 50.66798 | 8.43102 | 9262 ft | 174 kts | 153° |
| 2026-04-26 16:10 | 50.65730 | 8.44000 | 9262 ft | 174 kts | 153° |
| 2026-04-26 16:10 | 50.64662 | 8.44902 | 9258 ft | 175 kts | 153° |
| 2026-04-26 16:11 | 50.63585 | 8.45812 | 9257 ft | 176 kts | 153° |
| 2026-04-26 16:11 | 50.62509 | 8.46722 | 9265 ft | 176 kts | 153° |
| 2026-04-26 16:11 | 50.61432 | 8.47630 | 9259 ft | 175 kts | 153° |
| 2026-04-26 16:11 | 50.60359 | 8.48539 | 9263 ft | 175 kts | 153° |
| 2026-04-26 16:12 | 50.59291 | 8.49442 | 9263 ft | 174 kts | 153° |
| 2026-04-26 16:12 | 50.58235 | 8.50332 | 9270 ft | 175 kts | 153° |
| 2026-04-26 16:12 | 50.56086 | 8.52142 | 9270 ft | 175 kts | 153° |
| 2026-04-26 16:13 | 50.55010 | 8.53049 | 9275 ft | 176 kts | 153° |
| 2026-04-26 16:13 | 50.53922 | 8.53964 | 9266 ft | 177 kts | 153° |
| 2026-04-26 16:13 | 50.52837 | 8.54877 | 9266 ft | 176 kts | 153° |
| 2026-04-26 16:13 | 50.51759 | 8.55784 | 9269 ft | 176 kts | 153° |
| 2026-04-26 16:14 | 50.50682 | 8.56692 | 9261 ft | 175 kts | 153° |
| 2026-04-26 16:14 | 50.49607 | 8.57594 | 9266 ft | 175 kts | 153° |
| 2026-04-26 16:14 | 50.47466 | 8.59390 | 9265 ft | 174 kts | 153° |
| 2026-04-26 16:15 | 50.46397 | 8.60286 | 9272 ft | 174 kts | 153° |
| 2026-04-26 16:15 | 50.45325 | 8.61186 | 9271 ft | 175 kts | 153° |
| 2026-04-26 16:15 | 50.44229 | 8.62008 | 9261 ft | 174 kts | 164° |
| 2026-04-26 16:16 | 50.41931 | 8.63100 | 9264 ft | 173 kts | 165° |
| 2026-04-26 16:16 | 50.40776 | 8.63635 | 9265 ft | 173 kts | 165° |
| 2026-04-26 16:16 | 50.39619 | 8.64179 | 9266 ft | 173 kts | 165° |
| 2026-04-26 16:16 | 50.38463 | 8.64722 | 9261 ft | 174 kts | 165° |
| 2026-04-26 16:17 | 50.37300 | 8.65270 | 9267 ft | 175 kts | 165° |
| 2026-04-26 16:17 | 50.36136 | 8.65816 | 9261 ft | 175 kts | 165° |
| 2026-04-26 16:17 | 50.34973 | 8.66361 | 9259 ft | 174 kts | 165° |
| 2026-04-26 16:17 | 50.33812 | 8.66905 | 9264 ft | 174 kts | 165° |
| 2026-04-26 16:18 | 50.32654 | 8.67449 | 9256 ft | 173 kts | 165° |
| 2026-04-26 16:18 | 50.30344 | 8.68532 | 9254 ft | 173 kts | 165° |
| 2026-04-26 16:19 | 50.28047 | 8.69607 | 9252 ft | 173 kts | 165° |
| 2026-04-26 16:19 | 50.26890 | 8.70148 | 9254 ft | 174 kts | 165° |
| 2026-04-26 16:19 | 50.24948 | 8.71056 | 9250 ft | 174 kts | 165° |
| 2026-04-26 16:20 | 50.23414 | 8.71772 | 9251 ft | 174 kts | 165° |
| 2026-04-26 16:20 | 50.21097 | 8.72856 | 9252 ft | 174 kts | 165° |
| 2026-04-26 16:20 | 50.19932 | 8.73398 | 9245 ft | 174 kts | 165° |
| 2026-04-26 16:21 | 50.18768 | 8.73938 | 9253 ft | 174 kts | 165° |
| 2026-04-26 16:21 | 50.17602 | 8.74481 | 9253 ft | 175 kts | 165° |
| 2026-04-26 16:21 | 50.16437 | 8.75025 | 9253 ft | 175 kts | 165° |
| 2026-04-26 16:21 | 50.15272 | 8.75566 | 9251 ft | 175 kts | 165° |
| 2026-04-26 16:22 | 50.14106 | 8.76109 | 9251 ft | 175 kts | 165° |
| 2026-04-26 16:22 | 50.12957 | 8.76645 | 9255 ft | 175 kts | 165° |
| 2026-04-26 16:22 | 50.11787 | 8.77186 | 9249 ft | 175 kts | 165° |
| 2026-04-26 16:22 | 50.10620 | 8.77729 | 9249 ft | 175 kts | 165° |
| 2026-04-26 16:23 | 50.09457 | 8.78269 | 9252 ft | 174 kts | 165° |
| 2026-04-26 16:23 | 50.08293 | 8.78808 | 9249 ft | 175 kts | 165° |
| 2026-04-26 16:23 | 50.07127 | 8.79349 | 9249 ft | 174 kts | 165° |
| 2026-04-26 16:23 | 50.05962 | 8.79835 | 9241 ft | 173 kts | 174° |
| 2026-04-26 16:24 | 50.04780 | 8.79720 | 9247 ft | 170 kts | 195° |
| 2026-04-26 16:24 | 50.03622 | 8.79325 | 9246 ft | 170 kts | 196° |
| 2026-04-26 16:24 | 50.02470 | 8.78921 | 9253 ft | 170 kts | 196° |
| 2026-04-26 16:24 | 50.01310 | 8.78516 | 9248 ft | 171 kts | 196° |
| 2026-04-26 16:25 | 50.00151 | 8.78112 | 9245 ft | 170 kts | 196° |
| 2026-04-26 16:25 | 49.98991 | 8.77711 | 9251 ft | 171 kts | 196° |
| 2026-04-26 16:25 | 49.97844 | 8.77315 | 9248 ft | 170 kts | 196° |
| 2026-04-26 16:25 | 49.96688 | 8.76918 | 9247 ft | 170 kts | 196° |
| 2026-04-26 16:26 | 49.95533 | 8.76523 | 9248 ft | 169 kts | 195° |
| 2026-04-26 16:26 | 49.94769 | 8.76262 | 9248 ft | 169 kts | 195° |
| 2026-04-26 16:26 | 49.93235 | 8.75731 | 9251 ft | 169 kts | 196° |
| 2026-04-26 16:26 | 49.92079 | 8.75328 | 9248 ft | 171 kts | 196° |
| 2026-04-26 16:27 | 49.90915 | 8.74923 | 9246 ft | 171 kts | 196° |
| 2026-04-26 16:27 | 49.89756 | 8.74520 | 9244 ft | 170 kts | 196° |
| 2026-04-26 16:27 | 49.88600 | 8.74120 | 9246 ft | 170 kts | 196° |
| 2026-04-26 16:27 | 49.87449 | 8.73721 | 9246 ft | 169 kts | 196° |
| 2026-04-26 16:28 | 49.86297 | 8.73324 | 9246 ft | 169 kts | 196° |
| 2026-04-26 16:28 | 49.85147 | 8.72928 | 9243 ft | 169 kts | 196° |
| 2026-04-26 16:28 | 49.83998 | 8.72532 | 9245 ft | 169 kts | 196° |
| 2026-04-26 16:28 | 49.82848 | 8.72137 | 9241 ft | 169 kts | 196° |
| 2026-04-26 16:29 | 49.81700 | 8.71743 | 9247 ft | 169 kts | 195° |
| 2026-04-26 16:29 | 49.80550 | 8.71349 | 9250 ft | 170 kts | 196° |
| 2026-04-26 16:29 | 49.79407 | 8.70952 | 9244 ft | 170 kts | 196° |
| 2026-04-26 16:29 | 49.78238 | 8.70548 | 9243 ft | 170 kts | 196° |
| 2026-04-26 16:30 | 49.77099 | 8.70159 | 9246 ft | 170 kts | 196° |
| 2026-04-26 16:30 | 49.75944 | 8.69761 | 9243 ft | 171 kts | 196° |
| 2026-04-26 16:30 | 49.74779 | 8.69363 | 9241 ft | 171 kts | 196° |
| 2026-04-26 16:30 | 49.73617 | 8.68993 | 9229 ft | 171 kts | 189° |
| 2026-04-26 16:31 | 49.72433 | 8.68829 | 9228 ft | 170 kts | 188° |
| 2026-04-26 16:31 | 49.71254 | 8.68669 | 9231 ft | 170 kts | 188° |
| 2026-04-26 16:31 | 49.70069 | 8.68508 | 9233 ft | 172 kts | 188° |
| 2026-04-26 16:31 | 49.68875 | 8.68348 | 9224 ft | 171 kts | 188° |
| 2026-04-26 16:32 | 49.67691 | 8.68186 | 9229 ft | 171 kts | 189° |
| 2026-04-26 16:32 | 49.66904 | 8.68072 | 9228 ft | 171 kts | 189° |
| 2026-04-26 16:32 | 49.65318 | 8.67859 | 9219 ft | 170 kts | 188° |
| 2026-04-26 16:32 | 49.64140 | 8.67706 | 9223 ft | 170 kts | 188° |
| 2026-04-26 16:33 | 49.62959 | 8.67552 | 9220 ft | 171 kts | 188° |
| 2026-04-26 16:33 | 49.61775 | 8.67395 | 9222 ft | 170 kts | 188° |
| 2026-04-26 16:33 | 49.60606 | 8.67240 | 9222 ft | 171 kts | 188° |
| 2026-04-26 16:33 | 49.59421 | 8.67083 | 9214 ft | 170 kts | 189° |
| 2026-04-26 16:34 | 49.58243 | 8.66921 | 9221 ft | 170 kts | 188° |
| 2026-04-26 16:34 | 49.57066 | 8.66762 | 9218 ft | 170 kts | 188° |
| 2026-04-26 16:34 | 49.55882 | 8.66605 | 9218 ft | 171 kts | 188° |
| 2026-04-26 16:34 | 49.54691 | 8.66446 | 9220 ft | 172 kts | 188° |
| 2026-04-26 16:35 | 49.53495 | 8.66286 | 9222 ft | 173 kts | 188° |
| 2026-04-26 16:35 | 49.52297 | 8.66127 | 9221 ft | 173 kts | 188° |
| 2026-04-26 16:35 | 49.51100 | 8.65968 | 9222 ft | 173 kts | 188° |
| 2026-04-26 16:35 | 49.49903 | 8.65811 | 9218 ft | 172 kts | 188° |
| 2026-04-26 16:36 | 49.48709 | 8.65649 | 9218 ft | 172 kts | 188° |
| 2026-04-26 16:36 | 49.47515 | 8.65489 | 9218 ft | 172 kts | 188° |
| 2026-04-26 16:36 | 49.46320 | 8.65330 | 9218 ft | 172 kts | 188° |
| 2026-04-26 16:36 | 49.45149 | 8.65175 | 9218 ft | 171 kts | 188° |
| 2026-04-26 16:37 | 49.43962 | 8.65018 | 9218 ft | 171 kts | 188° |
| 2026-04-26 16:37 | 49.42779 | 8.64859 | 9218 ft | 170 kts | 188° |
| 2026-04-26 16:37 | 49.41600 | 8.64704 | 9218 ft | 170 kts | 188° |
| 2026-04-26 16:37 | 49.40805 | 8.64598 | 9215 ft | 170 kts | 188° |
| 2026-04-26 16:38 | 49.39241 | 8.64391 | 9219 ft | 170 kts | 188° |
| 2026-04-26 16:38 | 49.38061 | 8.64234 | 9216 ft | 170 kts | 188° |
| 2026-04-26 16:38 | 49.36881 | 8.64077 | 9220 ft | 170 kts | 188° |
| 2026-04-26 16:38 | 49.35701 | 8.63921 | 9221 ft | 170 kts | 188° |
| 2026-04-26 16:39 | 49.34522 | 8.63763 | 9216 ft | 170 kts | 188° |
| 2026-04-26 16:39 | 49.33347 | 8.63609 | 9219 ft | 169 kts | 188° |
| 2026-04-26 16:39 | 49.32172 | 8.63447 | 9222 ft | 170 kts | 189° |
| 2026-04-26 16:39 | 49.30998 | 8.63259 | 9220 ft | 169 kts | 189° |
| 2026-04-26 16:40 | 49.29827 | 8.63073 | 9221 ft | 170 kts | 189° |
| 2026-04-26 16:40 | 49.28647 | 8.62888 | 9216 ft | 171 kts | 189° |
| 2026-04-26 16:40 | 49.27465 | 8.62708 | 9216 ft | 171 kts | 189° |
| 2026-04-26 16:40 | 49.26282 | 8.62523 | 9220 ft | 170 kts | 189° |
| 2026-04-26 16:41 | 49.25101 | 8.62339 | 9218 ft | 170 kts | 189° |
| 2026-04-26 16:41 | 49.23940 | 8.62159 | 9216 ft | 170 kts | 189° |
| 2026-04-26 16:41 | 49.22764 | 8.61978 | 9214 ft | 170 kts | 189° |
| 2026-04-26 16:41 | 49.21584 | 8.61795 | 9219 ft | 170 kts | 189° |
| 2026-04-26 16:42 | 49.20406 | 8.61612 | 9215 ft | 170 kts | 189° |
| 2026-04-26 16:42 | 49.19232 | 8.61431 | 9217 ft | 169 kts | 189° |
| 2026-04-26 16:42 | 49.18054 | 8.61250 | 9218 ft | 170 kts | 189° |
| 2026-04-26 16:42 | 49.16871 | 8.61067 | 9219 ft | 171 kts | 189° |
| 2026-04-26 16:43 | 49.15690 | 8.60884 | 9219 ft | 170 kts | 189° |
| 2026-04-26 16:43 | 49.14512 | 8.60702 | 9217 ft | 170 kts | 189° |
| 2026-04-26 16:43 | 49.13335 | 8.60527 | 9216 ft | 170 kts | 189° |
| 2026-04-26 16:43 | 49.12156 | 8.60351 | 9216 ft | 170 kts | 189° |
| 2026-04-26 16:44 | 49.10979 | 8.60174 | 9216 ft | 170 kts | 189° |
| 2026-04-26 16:44 | 49.10200 | 8.60057 | 9216 ft | 170 kts | 189° |
| 2026-04-26 16:44 | 49.09018 | 8.59880 | 9218 ft | 171 kts | 189° |
| 2026-04-26 16:44 | 49.07449 | 8.59644 | 9216 ft | 171 kts | 189° |
| 2026-04-26 16:45 | 49.06268 | 8.59467 | 9214 ft | 171 kts | 189° |
| 2026-04-26 16:45 | 49.05087 | 8.59290 | 9211 ft | 171 kts | 189° |
| 2026-04-26 16:45 | 49.04286 | 8.59170 | 9215 ft | 171 kts | 188° |
| 2026-04-26 16:45 | 49.03104 | 8.58993 | 9214 ft | 171 kts | 188° |
| 2026-04-26 16:46 | 49.01934 | 8.58818 | 9210 ft | 171 kts | 189° |
| 2026-04-26 16:46 | 49.00749 | 8.58642 | 9211 ft | 171 kts | 189° |
| 2026-04-26 16:46 | 48.99563 | 8.58463 | 9209 ft | 171 kts | 188° |
| 2026-04-26 16:46 | 48.98367 | 8.58525 | 9206 ft | 172 kts | 178° |
| 2026-04-26 16:47 | 48.97175 | 8.58669 | 9210 ft | 172 kts | 178° |
| 2026-04-26 16:47 | 48.95980 | 8.58816 | 9211 ft | 172 kts | 178° |
| 2026-04-26 16:47 | 48.94785 | 8.58960 | 9210 ft | 172 kts | 178° |
| 2026-04-26 16:47 | 48.93589 | 8.59101 | 9210 ft | 172 kts | 178° |
| 2026-04-26 16:48 | 48.92393 | 8.59242 | 9211 ft | 172 kts | 178° |
| 2026-04-26 16:48 | 48.91200 | 8.59385 | 9209 ft | 171 kts | 178° |
| 2026-04-26 16:48 | 48.90033 | 8.59524 | 9202 ft | 170 kts | 178° |
| 2026-04-26 16:48 | 48.88850 | 8.59663 | 9203 ft | 170 kts | 178° |
| 2026-04-26 16:49 | 48.87668 | 8.59804 | 9205 ft | 170 kts | 178° |
| 2026-04-26 16:49 | 48.86484 | 8.59944 | 9204 ft | 170 kts | 178° |
| 2026-04-26 16:49 | 48.85303 | 8.60083 | 9203 ft | 170 kts | 178° |
| 2026-04-26 16:49 | 48.84152 | 8.60487 | 9197 ft | 172 kts | 156° |
| 2026-04-26 16:50 | 48.83210 | 8.61596 | 9201 ft | 174 kts | 129° |
| 2026-04-26 16:50 | 48.82675 | 8.63213 | 9194 ft | 172 kts | 102° |
| 2026-04-26 16:50 | 48.82645 | 8.64990 | 9196 ft | 168 kts | 77° |
| 2026-04-26 16:50 | 48.82861 | 8.66734 | 9202 ft | 168 kts | 76° |
| 2026-04-26 16:51 | 48.83088 | 8.68476 | 9204 ft | 169 kts | 76° |
| 2026-04-26 16:51 | 48.83315 | 8.70228 | 9204 ft | 169 kts | 76° |
| 2026-04-26 16:51 | 48.83541 | 8.71979 | 9206 ft | 169 kts | 76° |
| 2026-04-26 16:51 | 48.83766 | 8.73731 | 9202 ft | 169 kts | 76° |
| 2026-04-26 16:52 | 48.83986 | 8.75462 | 9207 ft | 170 kts | 76° |
| 2026-04-26 16:52 | 48.84135 | 8.76630 | 9203 ft | 170 kts | 76° |
| 2026-04-26 16:52 | 48.84437 | 8.78980 | 9208 ft | 169 kts | 76° |
| 2026-04-26 16:52 | 48.84660 | 8.80728 | 9207 ft | 169 kts | 76° |
| 2026-04-26 16:53 | 48.84882 | 8.82480 | 9208 ft | 169 kts | 76° |
| 2026-04-26 16:53 | 48.85104 | 8.84232 | 9207 ft | 169 kts | 76° |
| 2026-04-26 16:53 | 48.85326 | 8.85990 | 9207 ft | 169 kts | 76° |
| 2026-04-26 16:53 | 48.85549 | 8.87745 | 9210 ft | 170 kts | 76° |
| 2026-04-26 16:54 | 48.85771 | 8.89503 | 9213 ft | 170 kts | 76° |
| 2026-04-26 16:54 | 48.85996 | 8.91269 | 9207 ft | 170 kts | 76° |
| 2026-04-26 16:54 | 48.86218 | 8.93011 | 9208 ft | 170 kts | 76° |
| 2026-04-26 16:54 | 48.86439 | 8.94773 | 9204 ft | 169 kts | 76° |
| 2026-04-26 16:55 | 48.86657 | 8.96526 | 9214 ft | 169 kts | 76° |
| 2026-04-26 16:55 | 48.86877 | 8.98282 | 9208 ft | 170 kts | 76° |
| 2026-04-26 16:55 | 48.87097 | 9.00039 | 9210 ft | 169 kts | 76° |
| 2026-04-26 16:55 | 48.87317 | 9.01791 | 9209 ft | 169 kts | 76° |
| 2026-04-26 16:56 | 48.87756 | 9.05303 | 9216 ft | 170 kts | 76° |
| 2026-04-26 16:56 | 48.87975 | 9.07071 | 9213 ft | 170 kts | 76° |
| 2026-04-26 16:56 | 48.88194 | 9.08831 | 9220 ft | 170 kts | 76° |
| 2026-04-26 16:57 | 48.88416 | 9.10602 | 9197 ft | 171 kts | 76° |
| 2026-04-26 16:57 | 48.88637 | 9.12377 | 9199 ft | 171 kts | 76° |
| 2026-04-26 16:57 | 48.89075 | 9.15923 | 9199 ft | 171 kts | 76° |
| 2026-04-26 16:58 | 48.89278 | 9.17713 | 9170 ft | 174 kts | 82° |
| 2026-04-26 16:58 | 48.89222 | 9.18942 | 9030 ft | 178 kts | 100° |
| 2026-04-26 16:58 | 48.87350 | 9.22115 | 8474 ft | 181 kts | 163° |
| 2026-04-26 16:59 | 48.86120 | 9.22307 | 8232 ft | 176 kts | 190° |
| 2026-04-26 16:59 | 48.84149 | 9.20555 | 7778 ft | 163 kts | 234° |
| 2026-04-26 17:00 | 48.82748 | 9.17923 | 7348 ft | 159 kts | 235° |
| 2026-04-26 17:00 | 48.81375 | 9.15346 | 6931 ft | 155 kts | 235° |
| 2026-04-26 17:00 | 48.80702 | 9.14081 | 6731 ft | 154 kts | 235° |
| 2026-04-26 17:01 | 48.80030 | 9.12822 | 6515 ft | 153 kts | 235° |
| 2026-04-26 17:01 | 48.79369 | 9.11584 | 6281 ft | 151 kts | 235° |
| 2026-04-26 17:01 | 48.78692 | 9.10310 | 5901 ft | 157 kts | 235° |
| 2026-04-26 17:01 | 48.78020 | 9.09049 | 5686 ft | 151 kts | 235° |
| 2026-04-26 17:02 | 48.77365 | 9.07829 | 5483 ft | 147 kts | 235° |
| 2026-04-26 17:02 | 48.76724 | 9.06635 | 5304 ft | 148 kts | 235° |
| 2026-04-26 17:02 | 48.76067 | 9.05404 | 5095 ft | 153 kts | 235° |
| 2026-04-26 17:02 | 48.75393 | 9.04141 | 4923 ft | 154 kts | 235° |
| 2026-04-26 17:03 | 48.74736 | 9.02931 | 4874 ft | 149 kts | 235° |
| 2026-04-26 17:03 | 48.74084 | 9.01726 | 4782 ft | 147 kts | 235° |
| 2026-04-26 17:03 | 48.73436 | 9.00526 | 4686 ft | 147 kts | 235° |
| 2026-04-26 17:03 | 48.72788 | 8.99329 | 4592 ft | 148 kts | 235° |
| 2026-04-26 17:04 | 48.72135 | 8.98120 | 4493 ft | 149 kts | 235° |
| 2026-04-26 17:04 | 48.71479 | 8.96907 | 4393 ft | 149 kts | 234° |
| 2026-04-26 17:04 | 48.70821 | 8.95695 | 4298 ft | 149 kts | 234° |
| 2026-04-26 17:04 | 48.70168 | 8.94495 | 4201 ft | 147 kts | 235° |
| 2026-04-26 17:05 | 48.69514 | 8.93288 | 4108 ft | 149 kts | 234° |
| 2026-04-26 17:05 | 48.68859 | 8.92074 | 3993 ft | 148 kts | 235° |
| 2026-04-26 17:05 | 48.68169 | 8.90946 | 3974 ft | 146 kts | 222° |
| 2026-04-26 17:05 | 48.67263 | 8.90220 | 3969 ft | 154 kts | 200° |
| 2026-04-26 17:06 | 48.66188 | 8.90060 | 3961 ft | 158 kts | 176° |
| 2026-04-26 17:06 | 48.65150 | 8.90532 | 3964 ft | 156 kts | 152° |
| 2026-04-26 17:06 | 48.64320 | 8.91570 | 3966 ft | 155 kts | 127° |
| 2026-04-26 17:06 | 48.63846 | 8.92996 | 3951 ft | 151 kts | 97° |
| 2026-04-26 17:07 | 48.63821 | 8.94545 | 3962 ft | 147 kts | 76° |
| 2026-04-26 17:07 | 48.64046 | 8.96045 | 3958 ft | 144 kts | 71° |
| 2026-04-26 17:07 | 48.64299 | 8.97497 | 3962 ft | 142 kts | 71° |
| 2026-04-26 17:07 | 48.64569 | 8.98935 | 3958 ft | 142 kts | 70° |
| 2026-04-26 17:08 | 48.64838 | 9.00348 | 3967 ft | 139 kts | 71° |
| 2026-04-26 17:08 | 48.65108 | 9.01777 | 3888 ft | 145 kts | 70° |
| 2026-04-26 17:08 | 48.65381 | 9.03219 | 3713 ft | 140 kts | 70° |
| 2026-04-26 17:08 | 48.65651 | 9.04634 | 3527 ft | 140 kts | 71° |
| 2026-04-26 17:09 | 48.65914 | 9.06017 | 3346 ft | 137 kts | 69° |
| 2026-04-26 17:09 | 48.66087 | 9.06923 | 3218 ft | 134 kts | 70° |
| 2026-04-26 17:09 | 48.66415 | 9.08667 | 2981 ft | 119 kts | 70° |
| 2026-04-26 17:09 | 48.66636 | 9.09818 | 2839 ft | 111 kts | 69° |
| 2026-04-26 17:10 | 48.66853 | 9.10937 | 2691 ft | 111 kts | 68° |
| 2026-04-26 17:10 | 48.67063 | 9.12045 | 2543 ft | 110 kts | 70° |
| 2026-04-26 17:10 | 48.67279 | 9.13180 | 2390 ft | 115 kts | 69° |
| 2026-04-26 17:10 | 48.67503 | 9.14334 | 2160 ft | 110 kts | 70° |
| 2026-04-26 17:11 | 48.67701 | 9.15437 | 2018 ft | 110 kts | 73° |
| 2026-04-26 17:11 | 48.67901 | 9.16542 | 1811 ft | 106 kts | 69° |
| 2026-04-26 17:11 | 48.68101 | 9.17579 | 1655 ft | 100 kts | 69° |
| 2026-04-26 17:11 | 48.68294 | 9.18594 | 1524 ft | 100 kts | 68° |
| 2026-04-26 17:12 | 48.68671 | 9.20536 | 1281 ft | 86 kts | 69° |
| 2026-04-26 17:12 | 48.68805 | 9.21224 | 1261 ft | 51 kts | 73° |
| 2026-04-26 17:13 | 48.68925 | 9.21473 | 1253 ft | 7 kts | 343° |
| 2026-04-26 17:13 | 48.68970 | 9.21453 | 1258 ft | 9 kts | 343° |
| 2026-04-26 17:13 | 48.69085 | 9.21379 | 1253 ft | 10 kts | 290° |
| 2026-04-26 17:14 | 48.69113 | 9.21297 | 1254 ft | 7 kts | 351° |
| 2026-04-26 17:14 | 48.69159 | 9.21369 | 1254 ft | 4 kts | 161° |
| 2026-04-26 17:14 | 48.69146 | 9.21367 | 1259 ft | 0 kts | 199° |